Time;durP1;ratioP1;P1;durP2;ratioP2;P2;SDS_P1;SDS_P2;PMS_P1;PMS_P2;Temp;Humidity;BMP_temperature;BMP_pressure;BME280_temperature;BME280_humidity;BME280_pressure;Samples;Min_cycle;Max_cycle;Signal;HPM_P1;HPM_P2
2020/12/01 00:00:39;;;;;;;10.40;3.85;;;8.10;77.30;;;;;;5025342;28;82335;-73
2020/12/01 00:03:05;;;;;;;4.38;2.42;;;8.10;77.30;;;;;;5026391;28;79618;-73
2020/12/01 00:05:31;;;;;;;5.45;2.58;;;8.10;77.40;;;;;;5027008;28;82404;-74
2020/12/01 00:07:57;;;;;;;8.88;2.88;;;8.10;77.40;;;;;;5030297;28;81026;-73
2020/12/01 00:10:23;;;;;;;7.40;2.88;;;8.10;77.20;;;;;;5028675;28;80211;-73
2020/12/01 00:12:50;;;;;;;5.97;2.80;;;8.10;77.20;;;;;;5028251;28;80524;-74
2020/12/01 00:15:21;;;;;;;5.88;3.17;;;8.10;77.10;;;;;;5027966;28;80024;-73
2020/12/01 00:17:48;;;;;;;5.63;2.70;;;8.10;77.10;;;;;;5026037;28;80813;-73
2020/12/01 00:20:17;;;;;;;8.63;2.80;;;8.10;77.10;;;;;;5025875;28;80277;-73
2020/12/01 00:22:43;;;;;;;6.63;2.50;;;8.10;77.00;;;;;;5030990;28;80894;-74
2020/12/01 00:25:09;;;;;;;5.45;2.95;;;8.10;77.00;;;;;;5029196;28;80405;-74
2020/12/01 00:27:35;;;;;;;4.85;2.22;;;8.00;77.10;;;;;;5029499;28;80907;-74
2020/12/01 00:30:06;;;;;;;7.00;3.20;;;8.10;77.00;;;;;;5029581;28;83093;-74
2020/12/01 00:32:32;;;;;;;6.93;2.92;;;8.00;77.00;;;;;;5029227;28;82747;-74
2020/12/01 00:34:58;;;;;;;9.93;3.58;;;7.90;77.00;;;;;;5030197;28;80141;-75
2020/12/01 00:37:23;;;;;;;5.50;2.70;;;7.90;77.10;;;;;;5033847;28;80502;-75
2020/12/01 00:39:49;;;;;;;5.07;2.92;;;7.90;77.30;;;;;;5032797;28;79678;-76
2020/12/01 00:42:15;;;;;;;6.30;2.70;;;7.80;77.40;;;;;;5029649;28;81058;-74
2020/12/01 00:44:41;;;;;;;5.00;2.72;;;7.80;77.50;;;;;;5032127;28;79659;-75
2020/12/01 00:47:06;;;;;;;5.25;2.78;;;7.80;77.60;;;;;;5028934;28;81727;-75
2020/12/01 00:49:32;;;;;;;5.35;2.92;;;7.80;77.60;;;;;;5029339;28;80345;-74
2020/12/01 00:51:58;;;;;;;6.57;3.15;;;7.70;77.60;;;;;;5029085;28;80004;-75
2020/12/01 00:54:24;;;;;;;5.57;3.25;;;7.70;77.60;;;;;;5029169;28;80988;-75
2020/12/01 00:56:50;;;;;;;4.18;2.67;;;7.70;77.60;;;;;;5031292;28;79750;-73
2020/12/01 00:59:15;;;;;;;4.80;2.90;;;7.60;77.60;;;;;;5028506;28;83805;-74
2020/12/01 01:01:41;;;;;;;4.57;2.60;;;7.50;77.60;;;;;;5030570;28;80669;-73
2020/12/01 01:04:07;;;;;;;7.13;2.95;;;7.50;77.60;;;;;;5029448;28;82424;-74
2020/12/01 01:06:33;;;;;;;4.30;2.35;;;7.50;77.70;;;;;;5030460;28;79989;-74
2020/12/01 01:08:58;;;;;;;7.47;3.15;;;7.40;77.70;;;;;;5032059;28;79938;-75
2020/12/01 01:11:32;;;;;;;4.80;2.78;;;7.40;77.90;;;;;;5031943;28;79706;-74
2020/12/01 01:13:59;;;;;;;6.53;3.10;;;7.40;78.00;;;;;;5030411;28;80762;-74
2020/12/01 01:16:25;;;;;;;7.88;3.20;;;7.40;78.00;;;;;;5031333;28;80807;-74
2020/12/01 01:18:52;;;;;;;6.43;2.90;;;7.40;78.10;;;;;;5029073;28;80066;-74
2020/12/01 01:21:18;;;;;;;5.72;3.13;;;7.40;78.10;;;;;;5028378;28;83015;-74
2020/12/01 01:23:44;;;;;;;5.47;3.08;;;7.40;78.20;;;;;;5031283;28;80277;-73
2020/12/01 01:26:10;;;;;;;8.98;3.40;;;7.40;78.20;;;;;;5028954;28;81511;-74
2020/12/01 01:28:36;;;;;;;6.53;2.70;;;7.40;78.20;;;;;;5029293;28;80348;-74
2020/12/01 01:31:01;;;;;;;8.52;3.40;;;7.40;78.30;;;;;;5029209;28;80707;-74
2020/12/01 01:33:27;;;;;;;4.75;2.63;;;7.40;78.30;;;;;;5028188;28;82659;-75
2020/12/01 01:35:54;;;;;;;6.38;3.10;;;7.40;78.20;;;;;;5029927;28;80492;-74
2020/12/01 01:38:20;;;;;;;5.75;2.45;;;7.40;78.10;;;;;;5028816;28;80525;-74
2020/12/01 01:40:46;;;;;;;6.53;2.85;;;7.40;78.10;;;;;;5028490;28;82879;-75
2020/12/01 01:43:12;;;;;;;5.20;2.70;;;7.40;78.10;;;;;;5030412;28;80067;-74
2020/12/01 01:45:45;;;;;;;5.22;2.92;;;7.40;78.00;;;;;;5028606;28;79722;-74
2020/12/01 01:48:15;;;;;;;5.25;2.80;;;7.40;77.90;;;;;;5030975;28;80812;-74
2020/12/01 01:50:52;;;;;;;5.95;2.60;;;7.30;77.90;;;;;;5029899;28;81135;-74
2020/12/01 01:53:18;;;;;;;4.22;2.20;;;7.20;77.90;;;;;;5029772;28;79956;-74
2020/12/01 01:55:45;;;;;;;7.75;2.88;;;7.20;77.90;;;;;;5030187;28;80558;-74
2020/12/01 01:58:12;;;;;;;4.20;2.50;;;7.20;77.90;;;;;;5028267;28;82404;-74
2020/12/01 02:00:56;;;;;;;5.88;3.63;;;7.10;77.80;;;;;;5027520;28;81383;-73
2020/12/01 02:03:42;;;;;;;4.93;2.83;;;7.10;77.70;;;;;;5028218;28;82515;-73
2020/12/01 02:06:21;;;;;;;4.60;2.65;;;7.00;77.70;;;;;;5029349;28;80541;-73
2020/12/01 02:08:56;;;;;;;6.95;2.63;;;7.00;77.90;;;;;;5029186;28;79834;-73
2020/12/01 02:11:23;;;;;;;9.18;3.47;;;6.90;77.90;;;;;;5027688;28;81639;-74
2020/12/01 02:14:13;;;;;;;5.28;2.67;;;6.90;77.90;;;;;;5029108;28;80546;-74
2020/12/01 02:16:43;;;;;;;3.75;2.50;;;6.90;77.90;;;;;;5018834;28;81088;-73
2020/12/01 02:19:14;;;;;;;5.03;2.83;;;6.90;78.00;;;;;;5027212;28;80661;-73
2020/12/01 02:21:41;;;;;;;4.15;2.22;;;6.90;78.10;;;;;;5027015;28;80873;-73
2020/12/01 02:24:15;;;;;;;5.55;2.20;;;6.90;78.10;;;;;;5028517;28;80550;-74
2020/12/01 02:26:42;;;;;;;3.75;2.40;;;6.90;78.10;;;;;;5028173;28;80893;-74
2020/12/01 02:29:13;;;;;;;4.07;2.35;;;6.90;78.10;;;;;;5027623;28;81595;-73
2020/12/01 02:31:39;;;;;;;4.47;2.20;;;6.90;78.20;;;;;;5027446;28;81334;-73
2020/12/01 02:34:07;;;;;;;4.57;2.55;;;6.90;78.30;;;;;;5028457;28;80795;-74
2020/12/01 02:36:34;;;;;;;3.35;2.08;;;6.90;78.30;;;;;;5028583;28;80813;-73
2020/12/01 02:39:00;;;;;;;4.25;2.45;;;6.90;78.40;;;;;;5029671;28;80892;-73
2020/12/01 02:41:26;;;;;;;3.92;2.17;;;6.90;78.30;;;;;;5031193;28;80496;-73
2020/12/01 02:43:52;;;;;;;4.57;2.63;;;6.90;78.20;;;;;;5029545;28;80780;-73
2020/12/01 02:46:19;;;;;;;5.00;2.40;;;6.80;78.20;;;;;;5030066;28;79710;-73
2020/12/01 02:48:45;;;;;;;5.50;2.58;;;6.80;78.20;;;;;;5030748;28;79827;-73
2020/12/01 02:51:11;;;;;;;6.10;2.90;;;6.80;78.20;;;;;;5030739;28;79957;-74
2020/12/01 02:53:37;;;;;;;5.20;2.40;;;6.80;78.20;;;;;;5027955;28;80198;-73
2020/12/01 02:56:03;;;;;;;4.70;2.92;;;6.80;78.30;;;;;;5027606;28;82936;-74
2020/12/01 02:58:28;;;;;;;4.50;2.72;;;6.80;78.30;;;;;;5027208;28;82696;-73
2020/12/01 03:00:54;;;;;;;4.55;2.40;;;6.80;78.20;;;;;;5028927;28;80531;-73
2020/12/01 03:03:20;;;;;;;4.18;2.40;;;6.80;78.00;;;;;;5029385;28;80503;-74
2020/12/01 03:05:46;;;;;;;11.15;2.78;;;6.70;78.00;;;;;;5031866;28;79686;-73
2020/12/01 03:08:15;;;;;;;4.40;2.58;;;6.70;78.10;;;;;;5028432;28;80682;-73
2020/12/01 03:10:41;;;;;;;3.53;2.22;;;6.60;78.20;;;;;;5027050;28;79830;-73
2020/12/01 03:13:06;;;;;;;5.45;3.00;;;6.60;78.30;;;;;;5026902;28;80217;-73
2020/12/01 03:15:32;;;;;;;7.40;3.17;;;6.50;78.30;;;;;;5026703;28;80638;-73
2020/12/01 03:17:58;;;;;;;10.55;2.58;;;6.60;78.30;;;;;;5028554;28;80073;-73
2020/12/01 03:20:24;;;;;;;5.38;2.65;;;6.50;78.20;;;;;;5026465;28;83467;-73
2020/12/01 03:22:53;;;;;;;4.15;2.50;;;6.50;78.20;;;;;;5028647;28;79805;-74
2020/12/01 03:25:18;;;;;;;4.88;2.70;;;6.40;78.30;;;;;;5028087;28;80938;-73
2020/12/01 03:27:44;;;;;;;4.57;2.75;;;6.40;78.30;;;;;;5027471;28;81861;-73
2020/12/01 03:30:11;;;;;;;6.35;2.92;;;6.30;78.30;;;;;;5026211;28;83429;-73
2020/12/01 03:32:37;;;;;;;4.05;2.22;;;6.30;78.40;;;;;;5028552;28;79925;-73
2020/12/01 03:35:03;;;;;;;5.60;2.20;;;6.30;78.40;;;;;;5027803;28;79802;-73
2020/12/01 03:37:29;;;;;;;5.28;2.92;;;6.30;78.40;;;;;;5028926;28;80189;-74
2020/12/01 03:39:55;;;;;;;4.72;2.30;;;6.30;78.40;;;;;;5030526;28;79588;-73
2020/12/01 03:42:21;;;;;;;5.30;2.58;;;6.30;78.40;;;;;;5027625;28;80622;-74
2020/12/01 03:44:46;;;;;;;4.88;2.38;;;6.30;78.50;;;;;;5029511;28;80486;-74
2020/12/01 03:47:12;;;;;;;4.28;2.13;;;6.30;78.50;;;;;;5031413;28;81521;-74
2020/12/01 03:49:38;;;;;;;6.45;2.65;;;6.30;78.40;;;;;;5028850;28;82918;-74
2020/12/01 03:52:04;;;;;;;4.35;2.67;;;6.30;78.40;;;;;;5028344;28;80137;-74
2020/12/01 03:54:30;;;;;;;3.88;2.30;;;6.30;78.40;;;;;;5027442;28;81056;-74
2020/12/01 03:56:56;;;;;;;4.18;2.10;;;6.20;78.40;;;;;;5027107;28;81288;-74
2020/12/01 03:59:23;;;;;;;4.72;2.25;;;6.20;78.40;;;;;;5029184;28;79765;-73
2020/12/01 04:01:49;;;;;;;5.93;2.90;;;6.20;78.40;;;;;;5028756;28;80178;-73
2020/12/01 04:04:16;;;;;;;4.25;2.00;;;6.20;78.40;;;;;;5029622;28;81102;-73
2020/12/01 04:06:41;;;;;;;3.53;2.10;;;6.20;78.40;;;;;;5028363;28;80142;-73
2020/12/01 04:09:07;;;;;;;4.03;2.13;;;6.20;78.50;;;;;;5027588;28;80891;-72
2020/12/01 04:11:33;;;;;;;4.30;2.08;;;6.10;78.50;;;;;;5026116;28;80142;-73
2020/12/01 04:13:58;;;;;;;6.70;3.50;;;6.10;78.70;;;;;;5025613;28;83747;-72
2020/12/01 04:16:24;;;;;;;4.53;2.33;;;6.00;78.80;;;;;;5026309;28;80418;-73
2020/12/01 04:18:50;;;;;;;4.35;2.03;;;6.00;78.80;;;;;;5027606;28;79843;-73
2020/12/01 04:21:17;;;;;;;4.80;2.20;;;6.00;78.80;;;;;;5026427;28;80249;-73
2020/12/01 04:23:43;;;;;;;3.70;2.15;;;6.00;78.80;;;;;;5026670;28;83901;-73
2020/12/01 04:26:09;;;;;;;5.32;2.40;;;6.00;78.90;;;;;;5026540;28;81692;-73
2020/12/01 04:28:35;;;;;;;4.93;2.50;;;6.00;78.90;;;;;;5026407;28;82020;-73
2020/12/01 04:31:00;;;;;;;3.60;1.83;;;6.10;78.80;;;;;;5026833;28;82219;-73
2020/12/01 04:33:26;;;;;;;4.43;2.20;;;6.00;78.80;;;;;;5028381;28;82660;-74
2020/12/01 04:35:52;;;;;;;3.92;1.90;;;6.10;78.70;;;;;;5028463;28;81666;-73
2020/12/01 04:38:18;;;;;;;4.90;2.33;;;6.10;78.60;;;;;;5029234;28;80505;-74
2020/12/01 04:40:44;;;;;;;5.25;1.77;;;6.00;78.30;;;;;;5030815;28;80184;-74
2020/12/01 04:43:29;;;;;;;4.22;2.40;;;6.00;78.20;;;;;;5028893;28;82016;-74
2020/12/01 04:45:55;;;;;;;4.05;1.90;;;5.90;78.10;;;;;;5029686;28;80889;-75
2020/12/01 04:48:46;;;;;;;5.57;2.50;;;5.90;78.20;;;;;;5030973;28;80773;-74
2020/12/01 04:51:27;;;;;;;5.43;2.30;;;5.90;78.10;;;;;;5031335;28;83307;-74
2020/12/01 04:54:34;;;;;;;5.82;2.53;;;5.90;78.30;;;;;;5032409;28;80899;-74
2020/12/01 04:57:33;;;;;;;3.45;1.88;;;5.90;78.30;;;;;;5030031;28;80273;-73
2020/12/01 05:00:56;;;;;;;4.30;2.20;;;5.90;78.40;;;;;;5026673;28;80756;-73
2020/12/01 05:03:57;;;;;;;4.63;2.50;;;5.90;78.20;;;;;;4970221;28;80093;-73
2020/12/01 05:07:21;;;;;;;5.78;2.28;;;5.90;78.20;;;;;;4987742;28;81144;-72
2020/12/01 05:09:53;;;;;;;5.57;2.50;;;5.80;78.10;;;;;;5017305;28;80140;-72
2020/12/01 05:12:30;;;;;;;3.80;2.30;;;5.70;78.30;;;;;;5031691;28;80606;-72
2020/12/01 05:14:56;;;;;;;6.28;2.75;;;5.80;78.20;;;;;;5030389;28;80307;-73
2020/12/01 05:17:59;;;;;;;5.93;2.33;;;5.80;78.10;;;;;;5029749;28;81271;-74
2020/12/01 05:20:25;;;;;;;4.93;2.38;;;5.80;77.90;;;;;;5030120;28;80661;-74
2020/12/01 05:22:55;;;;;;;3.63;2.13;;;5.70;78.10;;;;;;5031182;28;79745;-73
2020/12/01 05:25:30;;;;;;;5.70;2.95;;;5.70;78.10;;;;;;5030583;28;80088;-73
2020/12/01 05:28:11;;;;;;;5.38;2.80;;;5.70;78.00;;;;;;5032989;28;79619;-74
2020/12/01 05:30:39;;;;;;;4.88;2.38;;;5.70;78.10;;;;;;5033754;28;80052;-74
2020/12/01 05:33:10;;;;;;;6.05;2.53;;;5.70;78.20;;;;;;5033978;28;80721;-74
2020/12/01 05:35:36;;;;;;;3.78;2.05;;;5.70;78.10;;;;;;5030433;28;80497;-74
2020/12/01 05:38:17;;;;;;;4.65;2.42;;;5.70;77.80;;;;;;5031070;28;80163;-74
2020/12/01 05:41:01;;;;;;;4.78;2.45;;;5.60;77.80;;;;;;5030287;28;80802;-75
2020/12/01 05:43:37;;;;;;;5.53;3.28;;;5.60;77.90;;;;;;5029010;28;79765;-73
2020/12/01 05:46:27;;;;;;;5.88;2.90;;;5.60;78.00;;;;;;5029018;28;80763;-73
2020/12/01 05:49:03;;;;;;;7.05;2.63;;;5.60;77.90;;;;;;5030168;28;80713;-73
2020/12/01 05:51:43;;;;;;;6.75;3.05;;;5.60;78.10;;;;;;5028280;28;81567;-73
2020/12/01 05:54:34;;;;;;;5.03;2.53;;;5.60;78.30;;;;;;5028670;28;81077;-73
2020/12/01 05:57:00;;;;;;;7.85;2.85;;;5.60;78.20;;;;;;5029369;28;80755;-73
2020/12/01 05:59:26;;;;;;;4.03;2.70;;;5.60;78.20;;;;;;5029634;28;80737;-73
2020/12/01 06:02:03;;;;;;;5.68;2.50;;;5.60;78.20;;;;;;5028035;28;83290;-73
2020/12/01 06:04:29;;;;;;;8.05;2.67;;;5.70;78.20;;;;;;5030259;28;80444;-74
2020/12/01 06:07:06;;;;;;;6.93;2.97;;;5.60;78.20;;;;;;5030275;28;80708;-74
2020/12/01 06:10:04;;;;;;;8.80;3.80;;;5.60;78.20;;;;;;5031606;28;81011;-74
2020/12/01 06:12:51;;;;;;;9.23;4.45;;;5.70;78.00;;;;;;5030779;28;80793;-74
2020/12/01 06:15:19;;;;;;;8.23;3.92;;;5.60;78.10;;;;;;5029835;28;81031;-74
2020/12/01 06:17:51;;;;;;;12.25;4.45;;;5.60;78.10;;;;;;5030958;28;80386;-74
2020/12/01 06:20:36;;;;;;;10.10;4.30;;;5.60;78.00;;;;;;5030574;28;81859;-74
2020/12/01 06:23:42;;;;;;;10.93;5.10;;;5.60;78.10;;;;;;5028067;28;82730;-74
2020/12/01 06:26:43;;;;;;;10.32;5.28;;;5.60;78.00;;;;;;5028365;28;80686;-73
2020/12/01 06:29:36;;;;;;;11.07;5.32;;;5.50;78.20;;;;;;5030043;28;80674;-73
2020/12/01 06:32:41;;;;;;;8.65;4.32;;;5.50;78.10;;;;;;5029385;28;79979;-74
2020/12/01 06:35:34;;;;;;;15.82;5.28;;;5.50;78.10;;;;;;5005277;28;80264;-65
2020/12/01 06:38:12;;;;;;;10.52;4.88;;;5.50;78.30;;;;;;5027928;28;83175;-66
2020/12/01 06:40:43;;;;;;;10.88;5.38;;;5.50;78.40;;;;;;5028401;28;81342;-64
2020/12/01 06:43:21;;;;;;;10.30;4.95;;;5.50;78.40;;;;;;5029863;28;81160;-70
2020/12/01 06:45:52;;;;;;;12.77;4.93;;;5.50;78.40;;;;;;5028808;28;82602;-72
2020/12/01 06:48:21;;;;;;;15.90;6.28;;;5.60;78.30;;;;;;5030845;28;80631;-72
2020/12/01 06:50:58;;;;;;;9.95;4.45;;;5.60;78.30;;;;;;5027929;28;80099;-68
2020/12/01 06:53:36;;;;;;;12.07;6.05;;;5.60;78.20;;;;;;5028012;28;80751;-70
2020/12/01 06:56:05;;;;;;;13.02;5.75;;;5.60;78.10;;;;;;5028223;28;80762;-68
2020/12/01 06:58:35;;;;;;;14.68;6.45;;;5.50;78.10;;;;;;5030498;28;79759;-72
2020/12/01 07:01:22;;;;;;;16.25;6.60;;;5.50;78.00;;;;;;5029144;28;80111;-69
2020/12/01 07:04:04;;;;;;;15.98;6.20;;;5.50;78.00;;;;;;5029103;28;80941;-66
2020/12/01 07:06:29;;;;;;;14.45;6.43;;;5.50;78.00;;;;;;5029678;28;80544;-65
2020/12/01 07:09:09;;;;;;;13.98;6.07;;;5.50;78.00;;;;;;5030397;28;80620;-66
2020/12/01 07:11:57;;;;;;;13.27;6.47;;;5.60;78.10;;;;;;5028705;28;82349;-70
2020/12/01 07:14:38;;;;;;;13.45;6.57;;;5.60;77.90;;;;;;5030050;28;80826;-68
2020/12/01 07:17:37;;;;;;;15.10;7.70;;;5.50;77.90;;;;;;5027014;28;81663;-72
2020/12/01 07:20:18;;;;;;;13.02;6.88;;;5.50;77.60;;;;;;5005798;28;80086;-73
2020/12/01 07:22:54;;;;;;;16.35;7.80;;;5.40;77.70;;;;;;5028670;28;80200;-65
2020/12/01 07:25:52;;;;;;;9.98;4.72;;;5.40;77.80;;;;;;5029859;28;79828;-65
2020/12/01 07:28:35;;;;;;;10.35;5.40;;;5.40;77.80;;;;;;5028201;28;80809;-69
2020/12/01 07:31:17;;;;;;;12.60;5.60;;;5.40;77.80;;;;;;5027277;28;80146;-68
2020/12/01 07:34:11;;;;;;;10.55;4.47;;;5.40;77.70;;;;;;5028275;28;80349;-66
2020/12/01 07:36:41;;;;;;;7.93;3.92;;;5.40;77.70;;;;;;5028825;27;81255;-68
2020/12/01 07:39:20;;;;;;;10.32;3.88;;;5.40;77.50;;;;;;5029564;28;79810;-65
2020/12/01 07:41:54;;;;;;;8.07;3.28;;;5.40;77.50;;;;;;5027886;28;82653;-65
2020/12/01 07:44:32;;;;;;;9.13;4.32;;;5.40;77.50;;;;;;5029881;28;79786;-68
2020/12/01 07:47:11;;;;;;;5.80;3.33;;;5.40;77.30;;;;;;5028537;28;83270;-65
2020/12/01 07:49:37;;;;;;;10.02;3.03;;;5.40;77.20;;;;;;5027147;28;81476;-68
2020/12/01 07:52:06;;;;;;;7.95;3.10;;;5.40;77.10;;;;;;5028136;28;79882;-66
2020/12/01 07:54:34;;;;;;;10.98;3.95;;;5.50;77.10;;;;;;5026920;28;81711;-66
2020/12/01 07:57:10;;;;;;;10.40;3.33;;;5.60;77.00;;;;;;5026865;28;81665;-66
2020/12/01 07:59:41;;;;;;;5.70;3.00;;;5.70;76.80;;;;;;5029055;28;80691;-72
2020/12/01 08:02:07;;;;;;;6.88;3.30;;;5.70;76.60;;;;;;5029063;28;81276;-72
2020/12/01 08:04:33;;;;;;;8.05;2.97;;;5.80;76.50;;;;;;5027751;28;82572;-71
2020/12/01 08:07:03;;;;;;;7.65;3.55;;;5.80;76.40;;;;;;5026756;28;79777;-64
2020/12/01 08:09:30;;;;;;;7.70;3.20;;;5.90;76.40;;;;;;5028558;28;80202;-69
2020/12/01 08:12:03;;;;;;;7.00;3.53;;;5.90;76.20;;;;;;5026217;28;81969;-70
2020/12/01 08:14:30;;;;;;;6.70;3.30;;;5.90;75.90;;;;;;5027618;28;80965;-71
2020/12/01 08:17:12;;;;;;;9.38;3.65;;;6.00;75.90;;;;;;5025946;28;81015;-72
2020/12/01 08:19:39;;;;;;;6.35;3.33;;;6.10;75.70;;;;;;5026477;28;80044;-70
2020/12/01 08:22:08;;;;;;;8.45;3.67;;;6.20;75.60;;;;;;5025658;28;80719;-68
2020/12/01 08:24:38;;;;;;;10.48;4.13;;;6.30;75.40;;;;;;5027579;28;79712;-71
2020/12/01 08:27:31;;;;;;;8.95;3.50;;;6.40;75.00;;;;;;5025651;28;83012;-72
2020/12/01 08:29:59;;;;;;;14.32;5.10;;;6.70;74.60;;;;;;5028537;28;79910;-72
2020/12/01 08:32:41;;;;;;;17.55;8.13;;;6.90;74.30;;;;;;5027327;28;80628;-69
2020/12/01 08:35:43;;;;;;;28.17;8.30;;;6.90;73.50;;;;;;5027193;28;80179;-66
2020/12/01 08:38:21;;;;;;;16.98;7.00;;;7.00;73.20;;;;;;4967699;28;81968;-67
2020/12/01 08:41:10;;;;;;;16.02;5.90;;;7.10;72.90;;;;;;5020549;28;80358;-68
2020/12/01 08:44:10;;;;;;;12.43;4.60;;;7.20;72.80;;;;;;4995976;28;80040;-66
2020/12/01 08:46:42;;;;;;;10.07;4.47;;;7.30;72.10;;;;;;5004932;28;80760;-65
2020/12/01 08:52:01;;;;;;;9.43;4.30;;;7.50;71.50;;;;;;5031728;28;79890;-67
2020/12/01 08:54:30;;;;;;;10.82;4.60;;;7.60;71.50;;;;;;5031362;28;79827;-66
2020/12/01 08:57:12;;;;;;;11.77;4.90;;;7.60;71.30;;;;;;5028605;28;82764;-66
2020/12/01 08:59:51;;;;;;;11.02;5.20;;;7.70;71.10;;;;;;5028333;28;83751;-68
2020/12/01 09:02:18;;;;;;;13.23;5.15;;;7.70;71.10;;;;;;5028563;28;80300;-69
2020/12/01 09:04:44;;;;;;;9.82;4.00;;;7.80;71.00;;;;;;5030294;28;80403;-66
2020/12/01 09:10:24;;;;;;;10.35;3.78;;;7.90;70.40;;;;;;5006048;28;81248;-66
2020/12/01 09:23:37;;;;;;;17.95;6.85;;;8.90;67.70;;;;;;5030643;28;79703;-67
2020/12/01 09:26:19;;;;;;;12.20;5.15;;;9.30;66.50;;;;;;5029772;28;80414;-65
2020/12/01 09:28:51;;;;;;;9.73;4.20;;;9.90;65.00;;;;;;5027851;28;82342;-65
2020/12/01 09:31:18;;;;;;;8.80;4.22;;;10.40;62.90;;;;;;5027899;28;82918;-66
2020/12/01 09:33:44;;;;;;;9.52;4.55;;;11.00;61.00;;;;;;5028318;28;82924;-66
2020/12/01 09:36:22;;;;;;;9.73;4.68;;;11.20;60.10;;;;;;5029422;28;80531;-67
2020/12/01 09:38:49;;;;;;;81.95;14.23;;;11.40;60.20;;;;;;5028238;28;80689;-67
2020/12/01 09:41:17;;;;;;;15.35;5.30;;;11.70;59.30;;;;;;5026443;28;83446;-66
2020/12/01 09:43:55;;;;;;;12.63;5.10;;;11.90;58.60;;;;;;5027933;28;86051;-66
2020/12/01 09:46:32;;;;;;;11.30;5.72;;;11.90;58.30;;;;;;5027347;28;83485;-67
2020/12/01 09:49:02;;;;;;;15.93;5.82;;;12.10;58.00;;;;;;5027858;28;81310;-67
2020/12/01 09:51:30;;;;;;;10.93;4.50;;;12.40;57.10;;;;;;5027031;28;81800;-68
2020/12/01 09:54:23;;;;;;;11.30;5.70;;;12.50;56.70;;;;;;5027110;28;82960;-66
2020/12/01 09:56:57;;;;;;;12.70;4.65;;;12.50;57.00;;;;;;5027556;28;81465;-66
2020/12/01 10:07:46;;;;;;;10.68;4.80;;;14.40;51.60;;;;;;5029360;28;80092;-69
2020/12/01 10:10:33;;;;;;;11.38;4.60;;;15.70;49.00;;;;;;5029316;28;79948;-70
2020/12/01 10:18:28;;;;;;;13.57;4.13;;;16.70;46.00;;;;;;5025756;28;79768;-67
2020/12/01 10:36:43;;;;;;;8.25;3.30;;;23.50;32.60;;;;;;5025692;28;80186;-66
2020/12/01 10:39:10;;;;;;;10.63;4.53;;;22.70;34.40;;;;;;5026964;28;80605;-65
2020/12/01 10:41:39;;;;;;;6.53;3.67;;;22.50;34.60;;;;;;5026818;28;80548;-65
2020/12/01 10:44:06;;;;;;;10.45;3.58;;;22.30;34.90;;;;;;5026636;28;81109;-65
2020/12/01 10:46:32;;;;;;;7.18;3.47;;;22.70;34.90;;;;;;5026873;28;79669;-66
2020/12/01 10:48:59;;;;;;;7.88;2.85;;;24.20;32.80;;;;;;5028449;28;81125;-66
2020/12/01 10:51:25;;;;;;;6.13;2.83;;;25.70;30.50;;;;;;5026575;28;82445;-66
2020/12/01 10:53:50;;;;;;;7.25;2.17;;;26.30;29.70;;;;;;5026670;28;82860;-66
2020/12/01 10:56:16;;;;;;;11.10;2.10;;;25.90;30.00;;;;;;5028157;28;80713;-66
2020/12/01 10:58:42;;;;;;;6.10;2.00;;;25.10;30.90;;;;;;5026841;28;80695;-66
2020/12/01 11:01:08;;;;;;;5.00;2.17;;;25.50;30.30;;;;;;5027820;28;80756;-65
2020/12/01 11:03:33;;;;;;;5.28;2.10;;;26.60;29.00;;;;;;5026559;28;81820;-65
2020/12/01 11:05:59;;;;;;;5.75;2.17;;;26.60;28.60;;;;;;5025454;28;82421;-66
2020/12/01 11:08:25;;;;;;;7.35;1.88;;;26.80;28.50;;;;;;5026281;28;82748;-66
2020/12/01 11:10:52;;;;;;;4.15;1.80;;;27.20;27.90;;;;;;5025758;28;82232;-67
2020/12/01 11:13:18;;;;;;;4.53;1.95;;;27.30;27.60;;;;;;5027820;28;80935;-66
2020/12/01 11:15:44;;;;;;;5.55;2.50;;;26.00;28.80;;;;;;5026337;28;81423;-66
2020/12/01 11:18:10;;;;;;;7.45;3.25;;;25.20;30.00;;;;;;5025568;28;82816;-65
2020/12/01 11:20:36;;;;;;;4.63;2.17;;;25.70;29.50;;;;;;5025673;28;82640;-65
2020/12/01 11:23:02;;;;;;;6.70;3.38;;;26.70;28.20;;;;;;5027599;28;80567;-66
2020/12/01 11:25:28;;;;;;;6.15;2.20;;;27.20;27.80;;;;;;5027660;28;80193;-65
2020/12/01 11:27:53;;;;;;;3.30;1.92;;;27.20;27.60;;;;;;5027624;28;80788;-65
2020/12/01 11:30:22;;;;;;;5.05;2.13;;;27.70;26.90;;;;;;5025424;28;82349;-65
2020/12/01 11:32:48;;;;;;;3.22;1.65;;;27.80;26.70;;;;;;5025905;28;80666;-66
2020/12/01 11:35:15;;;;;;;4.55;1.98;;;28.20;26.40;;;;;;5026424;28;82894;-66
2020/12/01 11:37:41;;;;;;;4.63;1.92;;;28.70;26.00;;;;;;5027334;28;80791;-65
2020/12/01 11:40:09;;;;;;;4.07;1.50;;;29.50;25.20;;;;;;5027646;28;80192;-66
2020/12/01 11:42:35;;;;;;;5.45;1.60;;;30.20;24.10;;;;;;5027196;28;80609;-70
2020/12/01 11:45:01;;;;;;;8.43;1.90;;;31.00;23.00;;;;;;5026039;28;80893;-66
2020/12/01 11:47:27;;;;;;;3.55;1.63;;;31.30;22.70;;;;;;5025434;28;81490;-66
2020/12/01 11:49:53;;;;;;;5.75;1.90;;;30.60;23.10;;;;;;5025883;28;82322;-68
2020/12/01 11:52:19;;;;;;;2.50;1.23;;;29.60;23.90;;;;;;5025257;28;82745;-66
2020/12/01 11:54:44;;;;;;;3.72;1.55;;;28.10;25.00;;;;;;5027071;28;80139;-66
2020/12/01 11:57:10;;;;;;;7.13;2.83;;;28.60;24.60;;;;;;5027369;28;80508;-66
2020/12/01 11:59:36;;;;;;;6.95;3.33;;;28.10;25.20;;;;;;5025489;28;82185;-67
2020/12/01 12:02:02;;;;;;;6.95;2.83;;;27.70;25.40;;;;;;5027046;28;79953;-66
2020/12/01 12:04:27;;;;;;;7.20;3.22;;;26.20;26.70;;;;;;5027127;28;80633;-66
2020/12/01 12:06:53;;;;;;;7.22;3.25;;;24.60;28.70;;;;;;5027162;28;80660;-66
2020/12/01 12:09:19;;;;;;;7.53;3.45;;;23.60;30.60;;;;;;5027115;28;80653;-65
2020/12/01 12:11:45;;;;;;;11.20;3.70;;;23.40;30.70;;;;;;5026771;28;80732;-67
2020/12/01 12:14:11;;;;;;;7.85;4.18;;;23.50;30.90;;;;;;5025059;28;80918;-69
2020/12/01 12:16:37;;;;;;;9.70;4.13;;;24.30;29.70;;;;;;5025774;28;82011;-66
2020/12/01 12:19:03;;;;;;;6.78;3.88;;;24.70;29.10;;;;;;5028371;28;82408;-67
2020/12/01 12:21:29;;;;;;;6.20;3.50;;;24.00;30.10;;;;;;5028627;28;81026;-68
2020/12/01 12:23:55;;;;;;;9.57;2.72;;;24.00;30.00;;;;;;5028932;28;83179;-72
2020/12/01 12:26:21;;;;;;;6.38;2.90;;;25.40;28.00;;;;;;5030834;28;81005;-70
2020/12/01 12:28:47;;;;;;;11.80;4.32;;;26.80;26.70;;;;;;5030392;28;80539;-70
2020/12/01 12:31:16;;;;;;;8.40;4.30;;;27.00;26.40;;;;;;5028777;28;79863;-70
2020/12/01 12:33:42;;;;;;;9.70;5.15;;;26.40;26.90;;;;;;5028760;28;80655;-70
2020/12/01 12:36:07;;;;;;;10.20;4.35;;;25.30;28.70;;;;;;5028786;28;81135;-68
2020/12/01 12:38:33;;;;;;;8.60;4.13;;;24.50;29.80;;;;;;5030332;28;80120;-65
2020/12/01 12:40:59;;;;;;;20.90;12.52;;;24.70;29.80;;;;;;5029834;28;80495;-70
2020/12/01 12:43:27;;;;;;;7.95;4.78;;;24.50;30.00;;;;;;5025883;28;82626;-67
2020/12/01 12:45:53;;;;;;;6.10;4.40;;;24.20;30.20;;;;;;5029999;28;80373;-68
2020/12/01 12:48:20;;;;;;;9.95;5.85;;;25.10;29.40;;;;;;5030376;28;80166;-65
2020/12/01 12:50:46;;;;;;;8.05;3.60;;;26.00;28.00;;;;;;5027886;28;82572;-68
2020/12/01 12:53:12;;;;;;;5.53;2.65;;;26.20;27.80;;;;;;5030204;28;80657;-66
2020/12/01 12:55:38;;;;;;;6.65;2.47;;;26.10;27.60;;;;;;5030057;28;80693;-65
2020/12/01 12:58:04;;;;;;;4.75;2.15;;;26.30;27.20;;;;;;5027988;28;82662;-66
2020/12/01 13:00:31;;;;;;;5.75;2.20;;;26.20;27.00;;;;;;5027995;28;82018;-66
2020/12/01 13:02:57;;;;;;;4.93;2.15;;;26.00;27.00;;;;;;5029448;28;80245;-67
2020/12/01 13:05:24;;;;;;;3.95;1.75;;;25.40;27.70;;;;;;5029264;28;81082;-62
2020/12/01 13:07:50;;;;;;;3.92;1.45;;;25.40;27.70;;;;;;5029238;28;80742;-59
2020/12/01 13:10:16;;;;;;;7.88;2.17;;;25.30;28.40;;;;;;5028014;28;81042;-66
2020/12/01 13:12:42;;;;;;;5.38;2.20;;;25.50;28.40;;;;;;5028140;28;81511;-58
2020/12/01 13:15:09;;;;;;;3.30;1.23;;;25.90;27.40;;;;;;5027506;28;82824;-59
2020/12/01 13:17:35;;;;;;;5.32;1.42;;;25.00;27.80;;;;;;5027801;28;80617;-59
2020/12/01 13:20:04;;;;;;;2.75;1.33;;;24.10;28.70;;;;;;5027876;28;81439;-58
2020/12/01 13:22:29;;;;;;;2.85;1.13;;;23.10;29.80;;;;;;5027070;28;81163;-64
2020/12/01 13:24:55;;;;;;;2.72;1.10;;;23.30;29.30;;;;;;5028955;28;80928;-60
2020/12/01 13:27:21;;;;;;;4.28;0.90;;;23.50;28.40;;;;;;5027724;28;83374;-61
2020/12/01 13:29:47;;;;;;;6.18;0.75;;;24.40;27.40;;;;;;5026232;28;83379;-60
2020/12/01 13:32:13;;;;;;;4.18;1.10;;;24.90;26.60;;;;;;5027128;28;80322;-64
2020/12/01 13:34:38;;;;;;;5.68;2.17;;;24.80;26.60;;;;;;5027393;28;82513;-60
2020/12/01 13:37:04;;;;;;;2.45;0.98;;;23.90;27.60;;;;;;5027050;28;81092;-60
2020/12/01 13:39:30;;;;;;;4.18;1.10;;;22.90;28.90;;;;;;5027347;28;83347;-60
2020/12/01 13:41:56;;;;;;;3.42;0.65;;;22.00;29.70;;;;;;5026845;28;82367;-61
2020/12/01 13:44:22;;;;;;;2.65;0.77;;;21.30;30.40;;;;;;5027370;28;82926;-61
2020/12/01 13:46:53;;;;;;;3.05;0.70;;;20.60;31.50;;;;;;5027266;28;81499;-64
2020/12/01 13:49:19;;;;;;;5.30;1.35;;;20.10;32.00;;;;;;5028669;28;80406;-60
2020/12/01 13:51:45;;;;;;;1.80;0.75;;;19.80;33.20;;;;;;5027243;28;80597;-59
2020/12/01 13:54:11;;;;;;;5.20;1.17;;;19.50;33.80;;;;;;5027593;28;82136;-61
2020/12/01 13:56:36;;;;;;;3.72;1.48;;;19.30;34.40;;;;;;5027085;28;80680;-63